Time;durP1;ratioP1;P1;durP2;ratioP2;P2;SDS_P1;SDS_P2;PMS_P1;PMS_P2;Temp;Humidity;BMP_temperature;BMP_pressure;BME280_temperature;BME280_humidity;BME280_pressure;Samples;Min_cycle;Max_cycle;Signal;HPM_P1;HPM_P2
2021/01/15 00:02:00;;;;;;;4.07;1.83;;;20.10;34.50;;;;;;4829702;29;20163;-75
2021/01/15 00:04:26;;;;;;;3.60;1.17;;;20.10;34.50;;;;;;4832429;29;20017;-74
2021/01/15 00:06:56;;;;;;;5.63;4.22;;;20.10;34.50;;;;;;4816023;29;20514;-74
2021/01/15 00:09:22;;;;;;;2.90;2.60;;;20.10;34.40;;;;;;4811879;29;20117;-75
2021/01/15 00:11:47;;;;;;;1.27;0.75;;;20.10;34.50;;;;;;4825811;29;20866;-75
2021/01/15 00:14:13;;;;;;;1.25;0.82;;;20.10;34.50;;;;;;4823824;29;20046;-74
2021/01/15 00:16:38;;;;;;;5.22;4.00;;;20.10;34.30;;;;;;4830100;29;20039;-75
2021/01/15 00:19:04;;;;;;;3.35;2.80;;;20.10;34.30;;;;;;4831530;29;20097;-75
2021/01/15 00:21:31;;;;;;;3.00;2.00;;;20.10;34.30;;;;;;4824731;29;20030;-75
2021/01/15 00:23:57;;;;;;;0.60;0.60;;;20.10;34.30;;;;;;4814551;29;20033;-76
2021/01/15 00:26:25;;;;;;;6.03;4.03;;;20.10;34.20;;;;;;4792380;29;20042;-74
2021/01/15 00:28:50;;;;;;;4.30;2.25;;;20.10;34.20;;;;;;4807253;29;20049;-74
2021/01/15 00:31:16;;;;;;;3.58;0.88;;;20.10;34.30;;;;;;4824058;29;20038;-74
2021/01/15 00:33:41;;;;;;;1.95;0.95;;;20.10;34.30;;;;;;4815806;29;20110;-76
2021/01/15 00:36:07;;;;;;;5.53;3.85;;;20.10;34.20;;;;;;4808432;29;20503;-71
2021/01/15 00:38:33;;;;;;;4.38;3.13;;;20.10;34.30;;;;;;4792750;29;20046;-70
2021/01/15 00:41:00;;;;;;;1.73;1.35;;;20.00;34.30;;;;;;4816554;29;20038;-70
2021/01/15 00:43:26;;;;;;;2.30;0.65;;;20.00;34.40;;;;;;4824668;29;20050;-70
2021/01/15 00:45:51;;;;;;;4.80;3.58;;;20.00;34.40;;;;;;4813691;29;20057;-70
2021/01/15 00:48:17;;;;;;;2.90;2.53;;;20.00;34.30;;;;;;4834060;29;20387;-71
2021/01/15 00:50:42;;;;;;;1.10;0.80;;;20.00;34.40;;;;;;4840197;29;20036;-70
2021/01/15 00:53:08;;;;;;;0.70;0.52;;;20.00;34.30;;;;;;4812633;29;20396;-70
2021/01/15 00:55:34;;;;;;;4.32;3.50;;;20.00;34.30;;;;;;4811528;29;20034;-71
2021/01/15 00:57:59;;;;;;;1.52;1.05;;;20.00;34.30;;;;;;4810162;29;20030;-70
2021/01/15 01:00:25;;;;;;;0.50;0.50;;;20.00;34.30;;;;;;4841487;29;20041;-70
2021/01/15 01:02:51;;;;;;;0.68;0.68;;;19.90;34.20;;;;;;4809941;29;20084;-71
2021/01/15 01:05:20;;;;;;;3.92;3.45;;;19.90;34.20;;;;;;4798589;29;20045;-71
2021/01/15 01:07:47;;;;;;;5.40;0.50;;;19.90;34.10;;;;;;4826861;29;20117;-71
2021/01/15 01:10:13;;;;;;;4.88;2.65;;;19.90;34.10;;;;;;4830274;29;20061;-71
2021/01/15 01:12:42;;;;;;;7.78;4.50;;;19.90;34.00;;;;;;4821852;29;20034;-71
2021/01/15 01:15:12;;;;;;;3.72;2.55;;;19.90;34.00;;;;;;4826518;29;20038;-76
2021/01/15 01:17:37;;;;;;;0.70;0.55;;;19.90;34.10;;;;;;4812272;29;20037;-73
2021/01/15 01:20:05;;;;;;;2.40;1.98;;;19.90;34.20;;;;;;4814701;29;20113;-73
2021/01/15 01:22:39;;;;;;;5.60;3.63;;;19.80;34.10;;;;;;4838005;29;20057;-73
2021/01/15 01:25:06;;;;;;;4.07;2.47;;;19.90;34.20;;;;;;4826637;29;20104;-75
2021/01/15 01:27:32;;;;;;;0.50;0.50;;;19.80;34.20;;;;;;4814321;29;20054;-74
2021/01/15 01:29:57;;;;;;;2.13;1.27;;;19.80;34.20;;;;;;4798280;29;20105;-74
2021/01/15 01:32:35;;;;;;;4.82;3.53;;;19.80;34.10;;;;;;4827030;29;20046;-75
2021/01/15 01:35:01;;;;;;;0.60;0.60;;;19.80;34.20;;;;;;4809841;29;20034;-74
2021/01/15 01:37:26;;;;;;;1.85;1.15;;;19.80;34.10;;;;;;4832895;29;20054;-74
2021/01/15 01:39:52;;;;;;;5.88;4.28;;;19.70;34.00;;;;;;4810474;29;20034;-75
2021/01/15 01:42:18;;;;;;;2.90;2.50;;;19.70;34.00;;;;;;4826057;29;20086;-74
2021/01/15 01:44:43;;;;;;;2.17;1.08;;;19.80;34.10;;;;;;4812455;29;20483;-75
2021/01/15 01:47:43;;;;;;;1.38;0.90;;;19.70;34.00;;;;;;4824345;29;20054;-75
2021/01/15 01:50:09;;;;;;;5.22;3.60;;;19.70;34.00;;;;;;4811677;29;20027;-75
2021/01/15 01:52:36;;;;;;;3.35;1.85;;;19.70;34.10;;;;;;4785472;29;20130;-75
2021/01/15 01:55:32;;;;;;;0.82;0.70;;;19.70;34.60;;;;;;4809497;29;20054;-75
2021/01/15 01:57:58;;;;;;;5.45;4.13;;;19.70;33.90;;;;;;4808951;29;20426;-73
2021/01/15 02:00:24;;;;;;;18.48;2.67;;;19.70;34.00;;;;;;4810631;29;20056;-73
2021/01/15 02:02:49;;;;;;;1.08;0.75;;;19.70;34.00;;;;;;4809081;29;20048;-73
2021/01/15 02:05:15;;;;;;;1.20;1.10;;;19.70;33.90;;;;;;4838703;29;20022;-70
2021/01/15 02:07:41;;;;;;;5.47;4.25;;;19.70;34.00;;;;;;4828897;29;20042;-70
2021/01/15 02:10:19;;;;;;;0.95;0.50;;;19.70;33.90;;;;;;4793116;29;20042;-70
2021/01/15 02:13:28;;;;;;;0.73;0.73;;;19.70;34.00;;;;;;4817461;29;20491;-70
2021/01/15 02:16:01;;;;;;;7.05;4.30;;;19.70;33.90;;;;;;4745774;30;20476;-73
2021/01/15 02:18:40;;;;;;;0.77;0.65;;;19.70;33.90;;;;;;4705482;30;20068;-73
2021/01/15 02:21:31;;;;;;;0.82;0.70;;;19.70;33.80;;;;;;4724037;30;20480;-73
2021/01/15 02:24:12;;;;;;;6.07;4.45;;;19.70;33.80;;;;;;4734001;30;20414;-70
2021/01/15 02:26:57;;;;;;;4.28;2.92;;;19.60;33.70;;;;;;4734297;30;20537;-70
2021/01/15 02:29:27;;;;;;;1.10;1.00;;;19.60;33.90;;;;;;4719971;30;20451;-71
2021/01/15 02:32:16;;;;;;;6.28;4.90;;;19.60;33.80;;;;;;4733048;30;20070;-71
2021/01/15 02:34:57;;;;;;;3.92;2.83;;;19.60;33.80;;;;;;4741199;30;20127;-70
2021/01/15 02:38:13;;;;;;;2.95;1.05;;;19.60;33.90;;;;;;4744942;30;20052;-71
2021/01/15 02:40:41;;;;;;;6.38;4.18;;;19.60;33.90;;;;;;4686054;30;20049;-71
2021/01/15 02:43:07;;;;;;;3.53;2.78;;;19.60;33.80;;;;;;4681465;30;20045;-70
2021/01/15 02:45:34;;;;;;;2.33;1.60;;;19.50;33.80;;;;;;4684774;30;20099;-72
2021/01/15 02:48:02;;;;;;;4.47;2.75;;;19.50;33.70;;;;;;4682477;30;20180;-70
2021/01/15 02:50:28;;;;;;;4.47;3.80;;;19.50;33.70;;;;;;4683686;30;20096;-71
2021/01/15 02:52:54;;;;;;;0.75;0.65;;;19.50;33.70;;;;;;4724560;30;20040;-72
2021/01/15 02:55:19;;;;;;;1.65;1.08;;;19.50;33.80;;;;;;4736449;30;20048;-72
2021/01/15 02:57:45;;;;;;;6.40;4.25;;;19.50;33.80;;;;;;4756746;30;20068;-72
2021/01/15 03:00:16;;;;;;;2.95;2.67;;;19.50;33.70;;;;;;4756593;30;20456;-72
2021/01/15 03:03:18;;;;;;;0.43;0.43;;;19.50;33.70;;;;;;4758780;30;20584;-72
2021/01/15 03:06:05;;;;;;;5.97;4.70;;;19.50;33.70;;;;;;4750665;30;20098;-73
2021/01/15 03:08:31;;;;;;;2.75;2.40;;;19.50;33.70;;;;;;4746954;30;20083;-73
2021/01/15 03:11:00;;;;;;;1.50;1.00;;;19.40;33.70;;;;;;4755836;30;20091;-73
2021/01/15 03:13:28;;;;;;;0.75;0.60;;;19.40;33.60;;;;;;4731474;29;20044;-73
2021/01/15 03:15:54;;;;;;;5.50;3.42;;;19.40;33.60;;;;;;4802417;29;20030;-73
2021/01/15 03:18:20;;;;;;;0.85;0.40;;;19.40;33.60;;;;;;4808635;29;20031;-73
2021/01/15 03:20:59;;;;;;;0.98;0.65;;;19.40;33.60;;;;;;4812926;29;20125;-73
2021/01/15 03:23:25;;;;;;;5.38;3.72;;;19.40;33.50;;;;;;4806762;29;20138;-73
2021/01/15 03:25:51;;;;;;;4.65;2.97;;;19.40;33.50;;;;;;4817383;29;20510;-73
2021/01/15 03:28:16;;;;;;;2.97;0.68;;;19.40;33.70;;;;;;4808232;29;20487;-73
2021/01/15 03:30:42;;;;;;;0.40;0.40;;;19.40;33.60;;;;;;4812190;29;20102;-73
2021/01/15 03:33:07;;;;;;;6.47;4.18;;;19.40;33.60;;;;;;4832587;29;20030;-72
2021/01/15 03:35:33;;;;;;;1.30;0.45;;;19.40;33.60;;;;;;4827929;29;20127;-72
2021/01/15 03:38:04;;;;;;;1.85;1.25;;;19.40;33.60;;;;;;4811029;29;20041;-73
2021/01/15 03:40:37;;;;;;;5.85;4.82;;;19.40;33.50;;;;;;4812615;29;20026;-73
2021/01/15 03:43:19;;;;;;;3.20;2.90;;;19.40;33.40;;;;;;4826656;29;20110;-73
2021/01/15 03:45:45;;;;;;;0.80;0.50;;;19.40;33.60;;;;;;4795751;29;20061;-74
2021/01/15 03:48:12;;;;;;;6.47;4.40;;;19.40;33.40;;;;;;4792380;29;20423;-73
2021/01/15 03:50:38;;;;;;;4.63;3.33;;;19.40;33.50;;;;;;4793010;29;20514;-74
2021/01/15 03:53:03;;;;;;;1.08;0.63;;;19.40;33.50;;;;;;4823770;29;20060;-74
2021/01/15 03:55:29;;;;;;;2.55;1.30;;;19.30;34.10;;;;;;4807757;29;20044;-74
2021/01/15 03:57:54;;;;;;;6.18;5.00;;;19.30;33.50;;;;;;4806750;29;20049;-74
2021/01/15 04:00:20;;;;;;;3.03;2.35;;;19.30;33.50;;;;;;4825685;29;20502;-74
2021/01/15 04:02:46;;;;;;;0.50;0.45;;;19.30;33.50;;;;;;4807919;29;20499;-74
2021/01/15 04:05:24;;;;;;;9.40;5.90;;;19.30;33.50;;;;;;4792693;29;20468;-74
2021/01/15 04:07:49;;;;;;;4.78;4.32;;;19.30;33.50;;;;;;4807574;29;20035;-73
2021/01/15 04:10:16;;;;;;;0.35;0.30;;;19.30;33.50;;;;;;4807385;29;20057;-73
2021/01/15 04:12:42;;;;;;;7.88;3.58;;;19.30;33.60;;;;;;4794149;29;20030;-72
2021/01/15 04:15:09;;;;;;;6.78;5.97;;;19.30;33.60;;;;;;4807312;29;20047;-72
2021/01/15 04:17:35;;;;;;;1.02;0.73;;;19.20;33.60;;;;;;4809113;29;20076;-72
2021/01/15 04:20:00;;;;;;;0.75;0.47;;;19.30;33.60;;;;;;4812773;29;20410;-72
2021/01/15 04:22:32;;;;;;;9.18;6.93;;;19.20;33.60;;;;;;4823496;29;20026;-72
2021/01/15 04:24:57;;;;;;;6.35;5.30;;;19.20;33.60;;;;;;4807767;29;20041;-72
2021/01/15 04:27:27;;;;;;;0.50;0.50;;;19.20;33.70;;;;;;4823193;29;20038;-72
2021/01/15 04:29:53;;;;;;;0.55;0.55;;;19.20;33.70;;;;;;4823035;29;20410;-72
2021/01/15 04:32:18;;;;;;;7.30;5.82;;;19.20;33.70;;;;;;4809997;29;20117;-72
2021/01/15 04:34:44;;;;;;;7.93;3.97;;;19.20;33.70;;;;;;4827695;29;20053;-72
2021/01/15 04:37:10;;;;;;;6.15;2.95;;;19.20;33.80;;;;;;4826584;29;20423;-71
2021/01/15 04:39:35;;;;;;;9.45;7.10;;;19.20;33.70;;;;;;4806650;29;20130;-74
2021/01/15 04:42:01;;;;;;;5.95;5.35;;;19.10;34.40;;;;;;4823032;29;20446;-75
2021/01/15 04:44:26;;;;;;;6.47;2.95;;;19.10;33.80;;;;;;4807231;29;20062;-75
2021/01/15 04:46:52;;;;;;;3.47;1.45;;;19.20;33.80;;;;;;4807481;29;20057;-75
2021/01/15 04:49:20;;;;;;;6.97;6.15;;;19.10;33.80;;;;;;4791696;29;20113;-75
2021/01/15 04:51:45;;;;;;;1.55;1.15;;;19.10;33.80;;;;;;4793440;29;20065;-76
2021/01/15 04:54:13;;;;;;;2.22;1.60;;;19.10;33.90;;;;;;4777492;29;20070;-75
2021/01/15 04:56:51;;;;;;;11.68;7.55;;;19.10;34.50;;;;;;4813173;29;20143;-75
2021/01/15 04:59:17;;;;;;;8.07;5.10;;;19.10;33.80;;;;;;4792238;29;20038;-75
2021/01/15 05:01:45;;;;;;;1.75;1.10;;;19.10;33.90;;;;;;4824441;29;20033;-75
2021/01/15 05:04:14;;;;;;;8.75;6.85;;;19.10;33.80;;;;;;4806678;29;20073;-75
2021/01/15 05:10:02;;;;;;;8.48;6.88;;;19.20;33.80;;;;;;4823129;29;20063;-74
2021/01/15 05:12:31;;;;;;;1.25;0.90;;;19.20;33.70;;;;;;4807018;29;20031;-74
2021/01/15 05:14:57;;;;;;;10.02;7.72;;;19.30;33.60;;;;;;4794299;29;20038;-73
2021/01/15 05:17:22;;;;;;;1.83;1.08;;;19.40;33.70;;;;;;4806139;29;20045;-74
2021/01/15 05:19:48;;;;;;;9.93;7.63;;;19.50;33.50;;;;;;4776187;29;20026;-74
2021/01/15 05:22:14;;;;;;;1.52;0.68;;;19.50;33.40;;;;;;4791026;29;20026;-73
2021/01/15 05:24:40;;;;;;;10.75;8.68;;;19.60;33.90;;;;;;4806110;29;20042;-73
2021/01/15 05:27:38;;;;;;;6.13;4.57;;;19.80;33.10;;;;;;4791537;29;20105;-74
2021/01/15 05:30:24;;;;;;;2.50;1.23;;;19.80;33.00;;;;;;4811370;29;20069;-74
2021/01/15 05:32:50;;;;;;;0.80;0.70;;;20.00;32.90;;;;;;4824811;29;20559;-74
2021/01/15 05:35:16;;;;;;;1.27;0.90;;;20.00;32.70;;;;;;4810005;29;20042;-74
2021/01/15 05:37:42;;;;;;;9.82;7.30;;;20.10;32.50;;;;;;4797405;29;20038;-73
2021/01/15 05:40:09;;;;;;;0.80;0.70;;;20.10;32.50;;;;;;4808758;29;20030;-74
2021/01/15 05:42:49;;;;;;;9.60;7.57;;;20.20;32.50;;;;;;4795236;29;20019;-74
2021/01/15 05:45:15;;;;;;;1.00;0.80;;;20.20;32.40;;;;;;4812248;29;20030;-75
2021/01/15 05:47:41;;;;;;;11.30;8.35;;;20.30;32.40;;;;;;4825740;29;20118;-74
2021/01/15 05:50:08;;;;;;;1.17;0.70;;;20.30;32.40;;;;;;4809311;29;20045;-74
2021/01/15 05:52:33;;;;;;;4.15;1.83;;;20.30;32.40;;;;;;4794266;29;20410;-74
2021/01/15 05:54:59;;;;;;;8.40;6.55;;;20.30;32.30;;;;;;4794642;29;20114;-73
2021/01/15 05:57:25;;;;;;;1.58;1.10;;;20.40;32.30;;;;;;4793924;29;20107;-74
2021/01/15 05:59:52;;;;;;;8.40;6.80;;;20.30;32.20;;;;;;4809653;29;20129;-74
2021/01/15 06:02:17;;;;;;;2.50;0.73;;;20.40;32.20;;;;;;4811624;29;20034;-74
2021/01/15 06:04:43;;;;;;;10.10;7.25;;;20.40;32.20;;;;;;4824760;29;20411;-74
2021/01/15 06:07:08;;;;;;;0.52;0.52;;;20.40;32.20;;;;;;4824646;29;20112;-73
2021/01/15 06:09:35;;;;;;;1.27;0.82;;;20.40;32.10;;;;;;4825189;29;20411;-73
2021/01/15 06:12:08;;;;;;;6.75;5.97;;;20.40;32.10;;;;;;4810867;29;20038;-74
2021/01/15 06:15:24;;;;;;;1.13;1.00;;;20.40;32.20;;;;;;4790681;29;20172;-74
2021/01/15 06:17:50;;;;;;;8.75;6.32;;;20.50;32.10;;;;;;4822505;29;20107;-73
2021/01/15 06:20:20;;;;;;;2.45;1.00;;;20.50;32.10;;;;;;4794548;29;20058;-72
2021/01/15 06:22:48;;;;;;;8.63;6.85;;;20.40;32.10;;;;;;4808828;29;20031;-73
2021/01/15 06:25:33;;;;;;;0.93;0.30;;;20.50;32.20;;;;;;4825399;29;20029;-72
2021/01/15 06:27:59;;;;;;;9.73;7.88;;;20.50;32.20;;;;;;4793444;29;20046;-73
2021/01/15 06:30:26;;;;;;;5.65;3.72;;;20.50;32.10;;;;;;4824660;29;20026;-72
2021/01/15 06:32:52;;;;;;;1.42;1.05;;;20.50;32.40;;;;;;4809037;29;20030;-72
2021/01/15 06:35:32;;;;;;;7.70;6.03;;;20.50;32.30;;;;;;4831961;29;20395;-72
2021/01/15 06:38:10;;;;;;;1.60;1.13;;;20.50;32.20;;;;;;4808179;29;20511;-73
2021/01/15 06:40:39;;;;;;;7.50;6.32;;;20.50;32.20;;;;;;4830060;29;20037;-73
2021/01/15 06:43:27;;;;;;;1.35;1.00;;;20.50;32.20;;;;;;4805289;29;20030;-71
2021/01/15 06:45:57;;;;;;;9.50;7.65;;;20.50;32.30;;;;;;4829242;29;20030;-73
2021/01/15 06:48:40;;;;;;;0.80;0.70;;;20.50;32.20;;;;;;4842065;29;20046;-73
2021/01/15 06:51:06;;;;;;;0.90;0.73;;;20.50;32.20;;;;;;4831407;29;20103;-74
2021/01/15 06:53:43;;;;;;;7.00;5.93;;;20.50;32.30;;;;;;4801724;29;20102;-74
2021/01/15 06:56:16;;;;;;;1.05;0.77;;;20.50;32.20;;;;;;4826432;29;20062;-73
2021/01/15 06:58:43;;;;;;;8.00;6.10;;;20.50;32.20;;;;;;4797251;29;20022;-72
2021/01/15 07:01:17;;;;;;;0.75;0.70;;;20.50;32.20;;;;;;4815317;29;20080;-72
2021/01/15 07:03:48;;;;;;;2.20;1.60;;;20.50;32.40;;;;;;4825722;29;20114;-73
2021/01/15 07:06:27;;;;;;;7.03;5.35;;;20.50;32.30;;;;;;4840345;29;20030;-72
2021/01/15 07:08:54;;;;;;;0.65;0.60;;;20.50;32.20;;;;;;4813754;29;20050;-74
2021/01/15 07:11:21;;;;;;;8.13;5.88;;;20.50;32.40;;;;;;4800443;29;20104;-72
2021/01/15 07:13:52;;;;;;;1.25;0.85;;;20.50;32.40;;;;;;4807863;29;20046;-72
2021/01/15 07:16:18;;;;;;;11.07;6.43;;;20.50;32.30;;;;;;4796371;29;20491;-73
2021/01/15 07:18:45;;;;;;;2.53;1.77;;;20.50;32.30;;;;;;4818046;29;20039;-72
2021/01/15 07:21:10;;;;;;;0.60;0.45;;;20.50;32.30;;;;;;4791126;29;20024;-72
2021/01/15 07:24:08;;;;;;;8.25;6.07;;;20.50;32.50;;;;;;4799464;29;20426;-72
2021/01/15 07:26:39;;;;;;;1.75;0.68;;;20.50;32.50;;;;;;4821655;29;20030;-72
2021/01/15 07:29:20;;;;;;;8.20;6.80;;;20.60;32.40;;;;;;4824387;29;20084;-72
2021/01/15 07:31:47;;;;;;;0.75;0.52;;;20.50;32.40;;;;;;4795886;29;22135;-72
2021/01/15 07:34:16;;;;;;;8.55;5.93;;;20.60;32.60;;;;;;4809615;29;20061;-72
2021/01/15 07:36:42;;;;;;;4.60;3.33;;;20.60;32.50;;;;;;4804342;29;20061;-72
2021/01/15 07:39:12;;;;;;;1.08;0.63;;;20.60;32.50;;;;;;4806719;29;20508;-71
2021/01/15 07:41:39;;;;;;;7.28;5.57;;;20.60;32.50;;;;;;4834594;29;20033;-72
2021/01/15 07:44:23;;;;;;;0.75;0.75;;;20.60;32.50;;;;;;4807286;29;20381;-72
2021/01/15 07:46:52;;;;;;;9.48;6.95;;;20.60;32.50;;;;;;4831315;29;20035;-71
2021/01/15 07:49:17;;;;;;;3.10;1.30;;;20.60;32.40;;;;;;4826823;29;20131;-72
2021/01/15 07:51:43;;;;;;;1.65;0.82;;;20.60;32.50;;;;;;4822117;29;20511;-71
2021/01/15 07:54:09;;;;;;;8.15;6.18;;;20.60;32.50;;;;;;4807462;29;20054;-71
2021/01/15 07:56:34;;;;;;;0.82;0.80;;;20.60;32.50;;;;;;4833054;29;20042;-71
2021/01/15 07:59:06;;;;;;;8.63;6.88;;;20.60;32.40;;;;;;4823447;29;20403;-71
2021/01/15 08:01:31;;;;;;;0.43;0.40;;;20.60;32.40;;;;;;4822573;29;20053;-71
2021/01/15 08:03:57;;;;;;;2.85;1.25;;;20.60;32.50;;;;;;4826352;29;20035;-71
2021/01/15 08:06:24;;;;;;;6.82;5.60;;;20.60;32.50;;;;;;4831989;29;20384;-71
2021/01/15 08:08:57;;;;;;;1.55;0.93;;;20.60;32.50;;;;;;4807775;29;20038;-72
2021/01/15 08:11:23;;;;;;;7.95;6.40;;;20.60;32.40;;;;;;4837273;29;20050;-72
2021/01/15 08:14:14;;;;;;;0.90;0.22;;;20.60;32.40;;;;;;4820829;29;20110;-72
2021/01/15 08:16:41;;;;;;;1.83;0.85;;;20.60;32.50;;;;;;4809083;29;20036;-72
2021/01/15 08:19:09;;;;;;;5.65;4.85;;;20.60;32.50;;;;;;4814084;29;20576;-73
2021/01/15 08:21:35;;;;;;;0.70;0.63;;;20.50;32.50;;;;;;4809816;29;20037;-72
2021/01/15 08:27:22;;;;;;;0.98;0.73;;;20.50;32.50;;;;;;4821550;29;20053;-73
2021/01/15 08:29:50;;;;;;;7.70;6.32;;;20.50;32.60;;;;;;4806512;29;20500;-73
2021/01/15 08:32:15;;;;;;;2.72;2.00;;;20.50;32.60;;;;;;4790616;29;20050;-73
2021/01/15 08:34:41;;;;;;;0.38;0.38;;;20.60;32.70;;;;;;4803653;29;20050;-73
2021/01/15 08:37:11;;;;;;;7.35;5.18;;;20.50;32.60;;;;;;4808706;29;20117;-73
2021/01/15 08:39:46;;;;;;;1.27;0.65;;;20.50;32.70;;;;;;4792463;29;20045;-73
2021/01/15 08:42:13;;;;;;;7.93;5.40;;;20.50;32.90;;;;;;4781583;29;20030;-72
2021/01/15 08:44:39;;;;;;;3.80;3.40;;;20.50;32.90;;;;;;4823895;29;20085;-73
2021/01/15 08:47:08;;;;;;;0.95;0.60;;;20.50;33.00;;;;;;4807564;29;20027;-74
2021/01/15 08:49:33;;;;;;;7.85;6.05;;;20.50;33.00;;;;;;4823307;29;20041;-73
2021/01/15 08:51:59;;;;;;;0.40;0.22;;;20.50;33.60;;;;;;4807196;29;20039;-72
2021/01/15 08:54:25;;;;;;;0.57;0.57;;;20.50;33.00;;;;;;4791959;29;20042;-73
2021/01/15 08:56:52;;;;;;;7.65;5.55;;;20.60;33.00;;;;;;4805178;29;20163;-73
2021/01/15 08:59:28;;;;;;;0.90;0.82;;;20.60;33.00;;;;;;4821244;29;20491;-73
2021/01/15 09:01:54;;;;;;;4.55;3.08;;;20.60;32.90;;;;;;4805756;29;20027;-74
2021/01/15 09:04:24;;;;;;;5.57;4.35;;;20.60;32.90;;;;;;4804961;29;20111;-74
2021/01/15 09:06:53;;;;;;;1.27;0.57;;;20.70;33.00;;;;;;4809183;29;20046;-69
2021/01/15 09:09:23;;;;;;;13.75;7.43;;;20.70;32.90;;;;;;4792433;29;20019;-71
2021/01/15 09:11:50;;;;;;;0.17;0.17;;;20.80;32.80;;;;;;4798448;29;20053;-69
2021/01/15 09:14:22;;;;;;;3.08;0.82;;;20.80;32.70;;;;;;4796539;29;20026;-72
2021/01/15 09:20:10;;;;;;;0.57;0.57;;;20.90;32.70;;;;;;4827824;29;20494;-69
2021/01/15 09:22:36;;;;;;;2.33;0.95;;;20.90;32.80;;;;;;4825833;29;20026;-74
2021/01/15 09:25:02;;;;;;;8.68;6.20;;;20.80;32.70;;;;;;4828249;29;20522;-75
2021/01/15 09:27:29;;;;;;;0.90;0.57;;;20.80;32.90;;;;;;4795623;29;20033;-75
2021/01/15 09:29:55;;;;;;;1.58;0.77;;;20.80;33.00;;;;;;4825748;29;20087;-76
2021/01/15 09:32:21;;;;;;;1.77;0.40;;;20.70;32.90;;;;;;4809983;29;20034;-69
2021/01/15 09:34:46;;;;;;;3.83;0.63;;;20.70;33.00;;;;;;4809978;29;20786;-72
2021/01/15 09:37:12;;;;;;;9.52;6.70;;;20.70;33.00;;;;;;4803690;29;20045;-70
2021/01/15 09:39:38;;;;;;;3.83;0.73;;;20.70;33.00;;;;;;4803347;29;20148;-70
2021/01/15 09:42:03;;;;;;;0.57;0.57;;;20.70;33.00;;;;;;4825049;29;20023;-70
2021/01/15 09:44:30;;;;;;;8.68;6.05;;;20.70;33.00;;;;;;4825750;29;20062;-73
2021/01/15 09:47:00;;;;;;;3.83;0.43;;;20.70;33.00;;;;;;4798032;29;20038;-73
2021/01/15 09:49:27;;;;;;;7.97;5.78;;;20.70;33.00;;;;;;4825351;29;20042;-73
2021/01/15 09:51:52;;;;;;;7.72;5.00;;;20.70;33.00;;;;;;4787259;29;20056;-72
2021/01/15 09:54:18;;;;;;;0.93;0.55;;;20.70;33.00;;;;;;4809645;29;20113;-72
2021/01/15 09:56:44;;;;;;;9.25;7.50;;;20.70;32.90;;;;;;4808236;29;20030;-73
2021/01/15 09:59:11;;;;;;;0.98;0.52;;;20.70;33.10;;;;;;4804733;29;20111;-73
2021/01/15 10:01:36;;;;;;;1.95;0.88;;;20.70;33.00;;;;;;4805860;29;20056;-72
2021/01/15 10:04:02;;;;;;;8.75;7.13;;;20.70;33.00;;;;;;4822681;29;20505;-72
2021/01/15 10:06:28;;;;;;;1.15;0.77;;;20.70;32.80;;;;;;4806363;29;20041;-74
2021/01/15 10:08:57;;;;;;;1.33;0.45;;;20.70;32.80;;;;;;4809334;29;20047;-76
2021/01/15 10:11:24;;;;;;;8.27;6.90;;;20.70;32.80;;;;;;4808955;29;20538;-75
2021/01/15 10:13:52;;;;;;;0.68;0.47;;;20.70;32.70;;;;;;4796285;29;20038;-75
2021/01/15 10:16:17;;;;;;;1.17;1.00;;;20.70;32.60;;;;;;4825091;29;20067;-73
2021/01/15 10:18:43;;;;;;;8.48;6.70;;;20.70;32.60;;;;;;4823470;29;20439;-73
2021/01/15 10:21:08;;;;;;;1.02;0.47;;;20.80;32.70;;;;;;4825126;29;20466;-74
2021/01/15 10:23:35;;;;;;;1.42;1.00;;;20.80;32.50;;;;;;4808406;29;20038;-72
2021/01/15 10:26:01;;;;;;;10.40;7.00;;;20.70;32.40;;;;;;4805091;29;20046;-73
2021/01/15 10:28:27;;;;;;;1.38;0.90;;;20.80;32.40;;;;;;4791582;29;20048;-74
2021/01/15 10:30:53;;;;;;;0.32;0.30;;;20.80;32.40;;;;;;4828474;29;20049;-75
2021/01/15 10:33:21;;;;;;;8.35;6.43;;;20.80;32.30;;;;;;4816774;29;20091;-75
2021/01/15 10:35:46;;;;;;;3.53;0.82;;;20.80;32.20;;;;;;4807568;29;20050;-75
2021/01/15 10:38:12;;;;;;;0.25;0.10;;;20.80;32.20;;;;;;4789911;29;20073;-74
2021/01/15 10:40:37;;;;;;;10.38;6.47;;;20.80;32.20;;;;;;4824069;29;20034;-75
2021/01/15 10:43:03;;;;;;;0.95;0.88;;;20.80;32.10;;;;;;4807742;29;20039;-74
2021/01/15 10:45:34;;;;;;;4.65;0.70;;;20.80;32.00;;;;;;4792315;29;20155;-76
2021/01/15 10:47:59;;;;;;;7.97;6.38;;;20.80;32.00;;;;;;4802196;29;20042;-75
2021/01/15 10:50:25;;;;;;;1.20;0.55;;;20.80;32.00;;;;;;4789797;29;20053;-72
2021/01/15 10:52:54;;;;;;;0.32;0.32;;;20.80;32.00;;;;;;4811412;29;20026;-73
2021/01/15 10:55:20;;;;;;;7.30;6.32;;;20.80;31.90;;;;;;4813981;29;20050;-74
2021/01/15 10:57:52;;;;;;;1.30;0.63;;;20.80;31.90;;;;;;4825301;29;20510;-75
2021/01/15 11:00:18;;;;;;;1.15;0.75;;;20.80;31.90;;;;;;4826143;29;20634;-73
2021/01/15 11:02:47;;;;;;;7.85;6.88;;;20.80;31.80;;;;;;4806175;29;20114;-73
2021/01/15 11:05:14;;;;;;;1.13;0.88;;;20.80;31.80;;;;;;4823049;29;20180;-78
2021/01/15 11:07:41;;;;;;;3.17;1.08;;;20.90;31.80;;;;;;4791382;29;20046;-74
2021/01/15 11:10:07;;;;;;;8.30;7.40;;;20.80;31.80;;;;;;4804305;29;20054;-74
2021/01/15 11:12:32;;;;;;;0.85;0.22;;;20.80;31.70;;;;;;4788822;29;20123;-74
2021/01/15 11:15:16;;;;;;;0.73;0.25;;;20.90;31.70;;;;;;4823994;29;20066;-74
2021/01/15 11:17:42;;;;;;;11.35;8.00;;;20.90;31.50;;;;;;4805894;29;20042;-74
2021/01/15 11:20:08;;;;;;;1.00;0.70;;;20.90;31.60;;;;;;4821022;29;20027;-74
2021/01/15 11:22:37;;;;;;;1.00;0.40;;;20.90;31.40;;;;;;4807217;29;20400;-74
2021/01/15 11:25:06;;;;;;;0.52;0.43;;;20.90;31.30;;;;;;4818660;29;20031;-74
2021/01/15 11:27:34;;;;;;;5.35;1.52;;;20.90;31.30;;;;;;4788212;29;20465;-74
2021/01/15 11:30:01;;;;;;;1.90;0.98;;;20.90;31.20;;;;;;4818803;29;20031;-74
2021/01/15 11:32:26;;;;;;;1.45;0.70;;;20.90;31.20;;;;;;4820203;29;20026;-74
2021/01/15 11:34:54;;;;;;;0.35;0.35;;;20.90;31.20;;;;;;4775122;29;20046;-74
2021/01/15 11:37:20;;;;;;;2.05;0.68;;;20.90;31.20;;;;;;4802158;29;20134;-75
2021/01/15 11:39:45;;;;;;;0.52;0.52;;;20.90;31.20;;;;;;4811039;29;20145;-74
2021/01/15 11:42:11;;;;;;;1.73;0.88;;;20.90;31.80;;;;;;4817787;29;20039;-74
2021/01/15 11:44:37;;;;;;;0.77;0.30;;;20.90;31.10;;;;;;4784077;29;20043;-74
2021/01/15 11:47:03;;;;;;;1.42;1.20;;;20.90;31.20;;;;;;4815349;29;20086;-74
2021/01/15 11:49:28;;;;;;;2.10;0.93;;;20.90;31.20;;;;;;4785718;29;20061;-69
2021/01/15 11:51:55;;;;;;;3.97;1.38;;;20.80;31.20;;;;;;4817977;29;20087;-70
2021/01/15 11:54:21;;;;;;;1.67;1.08;;;20.90;31.30;;;;;;4803259;29;20054;-69
2021/01/15 11:56:52;;;;;;;1.35;1.17;;;20.80;31.30;;;;;;4819641;29;20030;-69
2021/01/15 11:59:18;;;;;;;2.00;1.50;;;20.80;31.40;;;;;;4794470;29;20034;-70
2021/01/15 12:01:44;;;;;;;2.15;1.08;;;20.80;31.50;;;;;;4822192;29;20030;-69
2021/01/15 12:04:09;;;;;;;15.20;10.85;;;20.80;31.40;;;;;;4823330;29;20034;-69
2021/01/15 12:06:35;;;;;;;2.97;1.60;;;20.80;31.50;;;;;;4821800;29;20512;-70
2021/01/15 12:09:01;;;;;;;4.38;1.75;;;20.80;31.30;;;;;;4801088;29;20515;-75
2021/01/15 12:11:26;;;;;;;4.13;2.03;;;20.80;31.30;;;;;;4822560;29;20139;-74
2021/01/15 12:13:52;;;;;;;2.00;1.25;;;20.80;31.20;;;;;;4823479;29;20034;-74
2021/01/15 12:16:22;;;;;;;12.25;3.95;;;20.80;31.20;;;;;;4823559;29;20038;-75
2021/01/15 12:18:50;;;;;;;8.02;2.80;;;20.90;31.20;;;;;;4823909;29;20108;-75
2021/01/15 12:21:17;;;;;;;7.10;2.53;;;20.90;31.20;;;;;;4822945;29;20034;-75
2021/01/15 12:23:43;;;;;;;21.35;5.38;;;21.00;31.10;;;;;;4809489;29;20050;-74
2021/01/15 12:26:09;;;;;;;8.02;2.42;;;21.00;31.00;;;;;;4806938;29;20042;-69
2021/01/15 12:28:34;;;;;;;1.52;1.42;;;21.00;30.90;;;;;;4807187;29;20062;-69
2021/01/15 12:31:00;;;;;;;12.00;2.67;;;21.10;30.80;;;;;;4824130;29;20109;-69
2021/01/15 12:33:25;;;;;;;10.77;3.97;;;21.10;30.70;;;;;;4831605;29;20036;-69
2021/01/15 12:35:51;;;;;;;3.45;2.42;;;21.20;30.70;;;;;;4813993;29;20416;-70
2021/01/15 12:38:18;;;;;;;14.52;4.22;;;21.20;30.70;;;;;;4817211;29;20043;-69
2021/01/15 12:40:45;;;;;;;9.80;2.33;;;21.20;30.60;;;;;;4792142;29;20038;-69
2021/01/15 12:43:10;;;;;;;8.63;4.10;;;21.20;30.70;;;;;;4812461;29;20031;-69
2021/01/15 12:45:43;;;;;;;14.55;3.53;;;21.20;30.70;;;;;;4797007;29;20083;-69
2021/01/15 12:48:09;;;;;;;9.73;3.75;;;21.30;30.90;;;;;;4798450;29;20430;-69
2021/01/15 12:50:35;;;;;;;8.05;3.60;;;21.30;30.90;;;;;;4825651;29;20048;-69
2021/01/15 12:53:00;;;;;;;15.35;4.28;;;21.30;31.00;;;;;;4803839;29;20043;-69
2021/01/15 12:55:26;;;;;;;16.58;5.85;;;21.30;31.10;;;;;;4811667;29;20487;-74
2021/01/15 12:58:01;;;;;;;13.70;5.05;;;21.30;31.10;;;;;;4811712;29;20435;-73
2021/01/15 13:00:27;;;;;;;6.47;3.30;;;21.30;31.20;;;;;;4827034;29;20022;-73
2021/01/15 13:02:59;;;;;;;12.35;4.72;;;21.30;31.30;;;;;;4822725;29;20031;-74
2021/01/15 13:05:24;;;;;;;14.25;2.85;;;21.30;31.30;;;;;;4812390;29;20456;-73